<?xml version="1.0" encoding="UTF-8" standalone="no" ?>
<gpx xmlns="http://www.topografix.com/GPX/1/1" xmlns:xsi="http://www.w3.org/2001/XMLSchema-instance" xsi:schemaLocation="http://www.topografix.com/GPX/1/1 http://www.topografix.com/GPX/1/1/gpx.xsd" version="1.1" creator="VisuGPX - https://www.visugpx.com">
  <metadata>
    <name>2021-03-09 1Vlmnt-circuit botanique</name>
  </metadata>
  <trk>
    <name><![CDATA[2021-03-09 17:09:21]]></name>
    <trkseg>
      <trkpt lat="49.08747" lon="6.69319">
        <ele>275.56</ele>
        <time>2021-03-09T14:43:03Z</time>
      </trkpt>
      <trkpt lat="49.08749" lon="6.69315">
        <ele>279.4</ele>
        <time>2021-03-09T14:43:06Z</time>
      </trkpt>
      <trkpt lat="49.08755" lon="6.69307">
        <ele>279.88</ele>
        <time>2021-03-09T14:43:13Z</time>
      </trkpt>
      <trkpt lat="49.08757" lon="6.69304">
        <ele>281.8</ele>
        <time>2021-03-09T14:43:16Z</time>
      </trkpt>
      <trkpt lat="49.08765" lon="6.69293">
        <ele>285.17</ele>
        <time>2021-03-09T14:43:25Z</time>
      </trkpt>
      <trkpt lat="49.08774" lon="6.69284">
        <ele>288.05</ele>
        <time>2021-03-09T14:43:32Z</time>
      </trkpt>
      <trkpt lat="49.08778" lon="6.69281">
        <ele>289.49</ele>
        <time>2021-03-09T14:43:35Z</time>
      </trkpt>
      <trkpt lat="49.08788" lon="6.69272">
        <ele>291.42</ele>
        <time>2021-03-09T14:43:43Z</time>
      </trkpt>
      <trkpt lat="49.08791" lon="6.69269">
        <ele>292.86</ele>
        <time>2021-03-09T14:43:46Z</time>
      </trkpt>
      <trkpt lat="49.08806" lon="6.69263">
        <ele>295.26</ele>
        <time>2021-03-09T14:43:57Z</time>
      </trkpt>
      <trkpt lat="49.08823" lon="6.69243">
        <ele>297.18</ele>
        <time>2021-03-09T14:44:15Z</time>
      </trkpt>
      <trkpt lat="49.08838" lon="6.69226">
        <ele>299.59</ele>
        <time>2021-03-09T14:44:31Z</time>
      </trkpt>
      <trkpt lat="49.08857" lon="6.69208">
        <ele>302.95</ele>
        <time>2021-03-09T14:44:49Z</time>
      </trkpt>
      <trkpt lat="49.08874" lon="6.6919">
        <ele>303.43</ele>
        <time>2021-03-09T14:45:06Z</time>
      </trkpt>
      <trkpt lat="49.08891" lon="6.6917">
        <ele>305.36</ele>
        <time>2021-03-09T14:45:22Z</time>
      </trkpt>
      <trkpt lat="49.08901" lon="6.69148">
        <ele>307.28</ele>
        <time>2021-03-09T14:45:36Z</time>
      </trkpt>
      <trkpt lat="49.08924" lon="6.69132">
        <ele>309.68</ele>
        <time>2021-03-09T14:45:55Z</time>
      </trkpt>
      <trkpt lat="49.0893" lon="6.69127">
        <ele>310.16</ele>
        <time>2021-03-09T14:46:09Z</time>
      </trkpt>
      <trkpt lat="49.08943" lon="6.69115">
        <ele>311.6</ele>
        <time>2021-03-09T14:46:22Z</time>
      </trkpt>
      <trkpt lat="49.08962" lon="6.69094">
        <ele>314.49</ele>
        <time>2021-03-09T14:46:39Z</time>
      </trkpt>
      <trkpt lat="49.08966" lon="6.69088">
        <ele>313.53</ele>
        <time>2021-03-09T14:46:44Z</time>
      </trkpt>
      <trkpt lat="49.0898" lon="6.6906">
        <ele>315.45</ele>
        <time>2021-03-09T14:47:01Z</time>
      </trkpt>
      <trkpt lat="49.08982" lon="6.69056">
        <ele>316.41</ele>
        <time>2021-03-09T14:47:04Z</time>
      </trkpt>
      <trkpt lat="49.08982" lon="6.69054">
        <ele>317.85</ele>
        <time>2021-03-09T14:47:05Z</time>
      </trkpt>
      <trkpt lat="49.08983" lon="6.69052">
        <ele>315.93</ele>
        <time>2021-03-09T14:47:06Z</time>
      </trkpt>
      <trkpt lat="49.08999" lon="6.69021">
        <ele>318.33</ele>
        <time>2021-03-09T14:47:26Z</time>
      </trkpt>
      <trkpt lat="49.09025" lon="6.68995">
        <ele>319.3</ele>
        <time>2021-03-09T14:47:43Z</time>
      </trkpt>
      <trkpt lat="49.09043" lon="6.6897">
        <ele>321.7</ele>
        <time>2021-03-09T14:48:00Z</time>
      </trkpt>
      <trkpt lat="49.09075" lon="6.68933">
        <ele>324.58</ele>
        <time>2021-03-09T14:48:20Z</time>
      </trkpt>
      <trkpt lat="49.09092" lon="6.68899">
        <ele>326.02</ele>
        <time>2021-03-09T14:48:44Z</time>
      </trkpt>
      <trkpt lat="49.09102" lon="6.6889">
        <ele>328.43</ele>
        <time>2021-03-09T14:49:02Z</time>
      </trkpt>
      <trkpt lat="49.09104" lon="6.68885">
        <ele>328.43</ele>
        <time>2021-03-09T14:49:16Z</time>
      </trkpt>
      <trkpt lat="49.09076" lon="6.6887">
        <ele>327.95</ele>
        <time>2021-03-09T14:49:37Z</time>
      </trkpt>
      <trkpt lat="49.09044" lon="6.68865">
        <ele>326.5</ele>
        <time>2021-03-09T14:49:59Z</time>
      </trkpt>
      <trkpt lat="49.09015" lon="6.68861">
        <ele>326.5</ele>
        <time>2021-03-09T14:50:19Z</time>
      </trkpt>
      <trkpt lat="49.09006" lon="6.68858">
        <ele>325.54</ele>
        <time>2021-03-09T14:50:26Z</time>
      </trkpt>
      <trkpt lat="49.09005" lon="6.68823">
        <ele>325.54</ele>
        <time>2021-03-09T14:50:44Z</time>
      </trkpt>
      <trkpt lat="49.09008" lon="6.68779">
        <ele>326.5</ele>
        <time>2021-03-09T14:51:03Z</time>
      </trkpt>
      <trkpt lat="49.0901" lon="6.68736">
        <ele>326.99</ele>
        <time>2021-03-09T14:51:21Z</time>
      </trkpt>
      <trkpt lat="49.0901" lon="6.68687">
        <ele>327.95</ele>
        <time>2021-03-09T14:51:44Z</time>
      </trkpt>
      <trkpt lat="49.09005" lon="6.68638">
        <ele>329.87</ele>
        <time>2021-03-09T14:52:06Z</time>
      </trkpt>
      <trkpt lat="49.08994" lon="6.68588">
        <ele>331.31</ele>
        <time>2021-03-09T14:52:28Z</time>
      </trkpt>
      <trkpt lat="49.08986" lon="6.68556">
        <ele>333.71</ele>
        <time>2021-03-09T14:52:44Z</time>
      </trkpt>
      <trkpt lat="49.08975" lon="6.68521">
        <ele>335.16</ele>
        <time>2021-03-09T14:53:03Z</time>
      </trkpt>
      <trkpt lat="49.08968" lon="6.68495">
        <ele>338.04</ele>
        <time>2021-03-09T14:53:18Z</time>
      </trkpt>
      <trkpt lat="49.08965" lon="6.6849">
        <ele>338.04</ele>
        <time>2021-03-09T14:53:21Z</time>
      </trkpt>
      <trkpt lat="49.08948" lon="6.68461">
        <ele>339.96</ele>
        <time>2021-03-09T14:53:39Z</time>
      </trkpt>
      <trkpt lat="49.08941" lon="6.68454">
        <ele>339.96</ele>
        <time>2021-03-09T14:53:44Z</time>
      </trkpt>
      <trkpt lat="49.08917" lon="6.68428">
        <ele>341.89</ele>
        <time>2021-03-09T14:54:03Z</time>
      </trkpt>
      <trkpt lat="49.08893" lon="6.68406">
        <ele>342.85</ele>
        <time>2021-03-09T14:54:22Z</time>
      </trkpt>
      <trkpt lat="49.08874" lon="6.68392">
        <ele>346.21</ele>
        <time>2021-03-09T14:54:39Z</time>
      </trkpt>
      <trkpt lat="49.08853" lon="6.68381">
        <ele>346.69</ele>
        <time>2021-03-09T14:54:55Z</time>
      </trkpt>
      <trkpt lat="49.08826" lon="6.68367">
        <ele>349.58</ele>
        <time>2021-03-09T14:55:15Z</time>
      </trkpt>
      <trkpt lat="49.08804" lon="6.6836">
        <ele>350.06</ele>
        <time>2021-03-09T14:55:31Z</time>
      </trkpt>
      <trkpt lat="49.08782" lon="6.68346">
        <ele>351.98</ele>
        <time>2021-03-09T14:55:49Z</time>
      </trkpt>
      <trkpt lat="49.0876" lon="6.68338">
        <ele>353.42</ele>
        <time>2021-03-09T14:56:05Z</time>
      </trkpt>
      <trkpt lat="49.08741" lon="6.68327">
        <ele>354.86</ele>
        <time>2021-03-09T14:56:22Z</time>
      </trkpt>
      <trkpt lat="49.08717" lon="6.68308">
        <ele>355.34</ele>
        <time>2021-03-09T14:56:43Z</time>
      </trkpt>
      <trkpt lat="49.08696" lon="6.68285">
        <ele>356.31</ele>
        <time>2021-03-09T14:57:04Z</time>
      </trkpt>
      <trkpt lat="49.08676" lon="6.68258">
        <ele>357.27</ele>
        <time>2021-03-09T14:57:23Z</time>
      </trkpt>
      <trkpt lat="49.08653" lon="6.68229">
        <ele>357.75</ele>
        <time>2021-03-09T14:57:42Z</time>
      </trkpt>
      <trkpt lat="49.08635" lon="6.68194">
        <ele>358.23</ele>
        <time>2021-03-09T14:58:00Z</time>
      </trkpt>
      <trkpt lat="49.08618" lon="6.68153">
        <ele>359.19</ele>
        <time>2021-03-09T14:58:19Z</time>
      </trkpt>
      <trkpt lat="49.08608" lon="6.68118">
        <ele>358.23</ele>
        <time>2021-03-09T14:58:37Z</time>
      </trkpt>
      <trkpt lat="49.08601" lon="6.68074">
        <ele>357.75</ele>
        <time>2021-03-09T14:58:57Z</time>
      </trkpt>
      <trkpt lat="49.08598" lon="6.68031">
        <ele>358.71</ele>
        <time>2021-03-09T14:59:16Z</time>
      </trkpt>
      <trkpt lat="49.08596" lon="6.67981">
        <ele>358.23</ele>
        <time>2021-03-09T14:59:37Z</time>
      </trkpt>
      <trkpt lat="49.08592" lon="6.67933">
        <ele>358.23</ele>
        <time>2021-03-09T14:59:59Z</time>
      </trkpt>
      <trkpt lat="49.08587" lon="6.67883">
        <ele>356.79</ele>
        <time>2021-03-09T15:00:21Z</time>
      </trkpt>
      <trkpt lat="49.08579" lon="6.67836">
        <ele>356.31</ele>
        <time>2021-03-09T15:00:42Z</time>
      </trkpt>
      <trkpt lat="49.08569" lon="6.67794">
        <ele>356.31</ele>
        <time>2021-03-09T15:01:02Z</time>
      </trkpt>
      <trkpt lat="49.08569" lon="6.67773">
        <ele>354.86</ele>
        <time>2021-03-09T15:01:12Z</time>
      </trkpt>
      <trkpt lat="49.08566" lon="6.67765">
        <ele>354.86</ele>
        <time>2021-03-09T15:01:17Z</time>
      </trkpt>
      <trkpt lat="49.08561" lon="6.6776">
        <ele>356.79</ele>
        <time>2021-03-09T15:01:20Z</time>
      </trkpt>
      <trkpt lat="49.08556" lon="6.67756">
        <ele>355.83</ele>
        <time>2021-03-09T15:01:23Z</time>
      </trkpt>
      <trkpt lat="49.08551" lon="6.67748">
        <ele>355.83</ele>
        <time>2021-03-09T15:01:27Z</time>
      </trkpt>
      <trkpt lat="49.08545" lon="6.67716">
        <ele>355.34</ele>
        <time>2021-03-09T15:01:43Z</time>
      </trkpt>
      <trkpt lat="49.08536" lon="6.67679">
        <ele>355.34</ele>
        <time>2021-03-09T15:02:01Z</time>
      </trkpt>
      <trkpt lat="49.08527" lon="6.67643">
        <ele>357.27</ele>
        <time>2021-03-09T15:02:19Z</time>
      </trkpt>
      <trkpt lat="49.0852" lon="6.67616">
        <ele>356.31</ele>
        <time>2021-03-09T15:02:35Z</time>
      </trkpt>
      <trkpt lat="49.08509" lon="6.67575">
        <ele>355.83</ele>
        <time>2021-03-09T15:02:54Z</time>
      </trkpt>
      <trkpt lat="49.08496" lon="6.67529">
        <ele>355.83</ele>
        <time>2021-03-09T15:03:16Z</time>
      </trkpt>
      <trkpt lat="49.08485" lon="6.67494">
        <ele>355.34</ele>
        <time>2021-03-09T15:03:33Z</time>
      </trkpt>
      <trkpt lat="49.08482" lon="6.67482">
        <ele>355.34</ele>
        <time>2021-03-09T15:03:40Z</time>
      </trkpt>
      <trkpt lat="49.08475" lon="6.67461">
        <ele>355.83</ele>
        <time>2021-03-09T15:03:54Z</time>
      </trkpt>
      <trkpt lat="49.08473" lon="6.67453">
        <ele>355.83</ele>
        <time>2021-03-09T15:03:57Z</time>
      </trkpt>
      <trkpt lat="49.08467" lon="6.6742">
        <ele>355.34</ele>
        <time>2021-03-09T15:04:12Z</time>
      </trkpt>
      <trkpt lat="49.08462" lon="6.67406">
        <ele>355.83</ele>
        <time>2021-03-09T15:04:22Z</time>
      </trkpt>
      <trkpt lat="49.08444" lon="6.67371">
        <ele>355.34</ele>
        <time>2021-03-09T15:04:38Z</time>
      </trkpt>
      <trkpt lat="49.0844" lon="6.67355">
        <ele>354.86</ele>
        <time>2021-03-09T15:04:45Z</time>
      </trkpt>
      <trkpt lat="49.08439" lon="6.67334">
        <ele>355.34</ele>
        <time>2021-03-09T15:04:57Z</time>
      </trkpt>
      <trkpt lat="49.08438" lon="6.6733">
        <ele>354.86</ele>
        <time>2021-03-09T15:05:00Z</time>
      </trkpt>
      <trkpt lat="49.08431" lon="6.6732">
        <ele>355.34</ele>
        <time>2021-03-09T15:05:05Z</time>
      </trkpt>
      <trkpt lat="49.08413" lon="6.67273">
        <ele>354.86</ele>
        <time>2021-03-09T15:05:25Z</time>
      </trkpt>
      <trkpt lat="49.08409" lon="6.67239">
        <ele>355.34</ele>
        <time>2021-03-09T15:05:41Z</time>
      </trkpt>
      <trkpt lat="49.08399" lon="6.67198">
        <ele>354.38</ele>
        <time>2021-03-09T15:05:59Z</time>
      </trkpt>
      <trkpt lat="49.08383" lon="6.67156">
        <ele>355.34</ele>
        <time>2021-03-09T15:06:16Z</time>
      </trkpt>
      <trkpt lat="49.08376" lon="6.67125">
        <ele>354.86</ele>
        <time>2021-03-09T15:06:32Z</time>
      </trkpt>
      <trkpt lat="49.08366" lon="6.67088">
        <ele>354.86</ele>
        <time>2021-03-09T15:06:50Z</time>
      </trkpt>
      <trkpt lat="49.08355" lon="6.67052">
        <ele>354.38</ele>
        <time>2021-03-09T15:07:07Z</time>
      </trkpt>
      <trkpt lat="49.08346" lon="6.67012">
        <ele>354.86</ele>
        <time>2021-03-09T15:07:26Z</time>
      </trkpt>
      <trkpt lat="49.08335" lon="6.66978">
        <ele>354.86</ele>
        <time>2021-03-09T15:07:42Z</time>
      </trkpt>
      <trkpt lat="49.08332" lon="6.66935">
        <ele>355.34</ele>
        <time>2021-03-09T15:08:00Z</time>
      </trkpt>
      <trkpt lat="49.08333" lon="6.66923">
        <ele>355.34</ele>
        <time>2021-03-09T15:08:06Z</time>
      </trkpt>
      <trkpt lat="49.08334" lon="6.66919">
        <ele>354.38</ele>
        <time>2021-03-09T15:08:09Z</time>
      </trkpt>
      <trkpt lat="49.08332" lon="6.66889">
        <ele>355.34</ele>
        <time>2021-03-09T15:08:24Z</time>
      </trkpt>
      <trkpt lat="49.0833" lon="6.66853">
        <ele>355.83</ele>
        <time>2021-03-09T15:08:40Z</time>
      </trkpt>
      <trkpt lat="49.0833" lon="6.66845">
        <ele>355.34</ele>
        <time>2021-03-09T15:08:49Z</time>
      </trkpt>
      <trkpt lat="49.08329" lon="6.66819">
        <ele>355.34</ele>
        <time>2021-03-09T15:09:02Z</time>
      </trkpt>
      <trkpt lat="49.08323" lon="6.6679">
        <ele>354.38</ele>
        <time>2021-03-09T15:09:17Z</time>
      </trkpt>
      <trkpt lat="49.08314" lon="6.66758">
        <ele>354.38</ele>
        <time>2021-03-09T15:09:34Z</time>
      </trkpt>
      <trkpt lat="49.08305" lon="6.66729">
        <ele>354.86</ele>
        <time>2021-03-09T15:09:50Z</time>
      </trkpt>
      <trkpt lat="49.08294" lon="6.66703">
        <ele>355.34</ele>
        <time>2021-03-09T15:10:05Z</time>
      </trkpt>
      <trkpt lat="49.08288" lon="6.6669">
        <ele>354.38</ele>
        <time>2021-03-09T15:10:19Z</time>
      </trkpt>
      <trkpt lat="49.08279" lon="6.66678">
        <ele>355.34</ele>
        <time>2021-03-09T15:10:34Z</time>
      </trkpt>
      <trkpt lat="49.08277" lon="6.66666">
        <ele>356.79</ele>
        <time>2021-03-09T15:10:42Z</time>
      </trkpt>
      <trkpt lat="49.08268" lon="6.66642">
        <ele>358.23</ele>
        <time>2021-03-09T15:10:55Z</time>
      </trkpt>
      <trkpt lat="49.08262" lon="6.66627">
        <ele>359.67</ele>
        <time>2021-03-09T15:11:09Z</time>
      </trkpt>
      <trkpt lat="49.08254" lon="6.66606">
        <ele>360.63</ele>
        <time>2021-03-09T15:11:22Z</time>
      </trkpt>
      <trkpt lat="49.08247" lon="6.66582">
        <ele>362.07</ele>
        <time>2021-03-09T15:11:36Z</time>
      </trkpt>
      <trkpt lat="49.08237" lon="6.66556">
        <ele>362.55</ele>
        <time>2021-03-09T15:11:49Z</time>
      </trkpt>
      <trkpt lat="49.08229" lon="6.66534">
        <ele>362.55</ele>
        <time>2021-03-09T15:12:03Z</time>
      </trkpt>
      <trkpt lat="49.08223" lon="6.66516">
        <ele>362.55</ele>
        <time>2021-03-09T15:12:15Z</time>
      </trkpt>
      <trkpt lat="49.08215" lon="6.665">
        <ele>363.04</ele>
        <time>2021-03-09T15:12:31Z</time>
      </trkpt>
      <trkpt lat="49.08209" lon="6.66485">
        <ele>362.55</ele>
        <time>2021-03-09T15:12:40Z</time>
      </trkpt>
      <trkpt lat="49.08203" lon="6.66467">
        <ele>362.07</ele>
        <time>2021-03-09T15:12:49Z</time>
      </trkpt>
      <trkpt lat="49.08189" lon="6.66445">
        <ele>361.59</ele>
        <time>2021-03-09T15:13:03Z</time>
      </trkpt>
      <trkpt lat="49.08181" lon="6.66431">
        <ele>360.63</ele>
        <time>2021-03-09T15:13:15Z</time>
      </trkpt>
      <trkpt lat="49.0817" lon="6.66411">
        <ele>360.63</ele>
        <time>2021-03-09T15:13:26Z</time>
      </trkpt>
      <trkpt lat="49.08153" lon="6.66386">
        <ele>359.19</ele>
        <time>2021-03-09T15:13:42Z</time>
      </trkpt>
      <trkpt lat="49.0814" lon="6.66371">
        <ele>358.71</ele>
        <time>2021-03-09T15:13:54Z</time>
      </trkpt>
      <trkpt lat="49.08135" lon="6.66364">
        <ele>359.19</ele>
        <time>2021-03-09T15:13:59Z</time>
      </trkpt>
      <trkpt lat="49.08132" lon="6.66358">
        <ele>357.75</ele>
        <time>2021-03-09T15:14:02Z</time>
      </trkpt>
      <trkpt lat="49.0812" lon="6.66337">
        <ele>357.27</ele>
        <time>2021-03-09T15:14:15Z</time>
      </trkpt>
      <trkpt lat="49.08119" lon="6.66335">
        <ele>357.27</ele>
        <time>2021-03-09T15:14:16Z</time>
      </trkpt>
      <trkpt lat="49.08107" lon="6.66325">
        <ele>353.9</ele>
        <time>2021-03-09T15:14:27Z</time>
      </trkpt>
      <trkpt lat="49.08106" lon="6.66324">
        <ele>359.67</ele>
        <time>2021-03-09T15:14:28Z</time>
      </trkpt>
      <trkpt lat="49.08105" lon="6.66324">
        <ele>358.71</ele>
        <time>2021-03-09T15:14:29Z</time>
      </trkpt>
      <trkpt lat="49.08104" lon="6.66321">
        <ele>356.79</ele>
        <time>2021-03-09T15:14:31Z</time>
      </trkpt>
      <trkpt lat="49.08101" lon="6.66318">
        <ele>356.31</ele>
        <time>2021-03-09T15:14:34Z</time>
      </trkpt>
      <trkpt lat="49.081" lon="6.66314">
        <ele>356.31</ele>
        <time>2021-03-09T15:14:36Z</time>
      </trkpt>
      <trkpt lat="49.08085" lon="6.66291">
        <ele>355.34</ele>
        <time>2021-03-09T15:14:50Z</time>
      </trkpt>
      <trkpt lat="49.08073" lon="6.66272">
        <ele>349.58</ele>
        <time>2021-03-09T15:15:02Z</time>
      </trkpt>
      <trkpt lat="49.08072" lon="6.66269">
        <ele>353.9</ele>
        <time>2021-03-09T15:15:03Z</time>
      </trkpt>
      <trkpt lat="49.08071" lon="6.66267">
        <ele>358.23</ele>
        <time>2021-03-09T15:15:04Z</time>
      </trkpt>
      <trkpt lat="49.08069" lon="6.66265">
        <ele>354.38</ele>
        <time>2021-03-09T15:15:05Z</time>
      </trkpt>
      <trkpt lat="49.08057" lon="6.66251">
        <ele>345.73</ele>
        <time>2021-03-09T15:15:17Z</time>
      </trkpt>
      <trkpt lat="49.08056" lon="6.66249">
        <ele>358.23</ele>
        <time>2021-03-09T15:15:18Z</time>
      </trkpt>
      <trkpt lat="49.08055" lon="6.66248">
        <ele>354.38</ele>
        <time>2021-03-09T15:15:19Z</time>
      </trkpt>
      <trkpt lat="49.08053" lon="6.66244">
        <ele>352.94</ele>
        <time>2021-03-09T15:15:21Z</time>
      </trkpt>
      <trkpt lat="49.08041" lon="6.66223">
        <ele>350.54</ele>
        <time>2021-03-09T15:15:34Z</time>
      </trkpt>
      <trkpt lat="49.08039" lon="6.6622">
        <ele>349.58</ele>
        <time>2021-03-09T15:15:36Z</time>
      </trkpt>
      <trkpt lat="49.08027" lon="6.66199">
        <ele>349.1</ele>
        <time>2021-03-09T15:15:50Z</time>
      </trkpt>
      <trkpt lat="49.08011" lon="6.66178">
        <ele>345.73</ele>
        <time>2021-03-09T15:16:04Z</time>
      </trkpt>
      <trkpt lat="49.0801" lon="6.66177">
        <ele>349.58</ele>
        <time>2021-03-09T15:16:05Z</time>
      </trkpt>
      <trkpt lat="49.08007" lon="6.66172">
        <ele>348.13</ele>
        <time>2021-03-09T15:16:08Z</time>
      </trkpt>
      <trkpt lat="49.08003" lon="6.66165">
        <ele>347.65</ele>
        <time>2021-03-09T15:16:11Z</time>
      </trkpt>
      <trkpt lat="49.07984" lon="6.66144">
        <ele>346.69</ele>
        <time>2021-03-09T15:16:27Z</time>
      </trkpt>
      <trkpt lat="49.07969" lon="6.66138">
        <ele>345.73</ele>
        <time>2021-03-09T15:16:40Z</time>
      </trkpt>
      <trkpt lat="49.07968" lon="6.6614">
        <ele>346.21</ele>
        <time>2021-03-09T15:16:41Z</time>
      </trkpt>
      <trkpt lat="49.07957" lon="6.66166">
        <ele>346.69</ele>
        <time>2021-03-09T15:16:56Z</time>
      </trkpt>
      <trkpt lat="49.07947" lon="6.66171">
        <ele>347.17</ele>
        <time>2021-03-09T15:17:05Z</time>
      </trkpt>
      <trkpt lat="49.07932" lon="6.66187">
        <ele>347.65</ele>
        <time>2021-03-09T15:17:19Z</time>
      </trkpt>
      <trkpt lat="49.07915" lon="6.66202">
        <ele>349.1</ele>
        <time>2021-03-09T15:17:33Z</time>
      </trkpt>
      <trkpt lat="49.07902" lon="6.66219">
        <ele>348.62</ele>
        <time>2021-03-09T15:17:46Z</time>
      </trkpt>
      <trkpt lat="49.0789" lon="6.66226">
        <ele>349.1</ele>
        <time>2021-03-09T15:17:55Z</time>
      </trkpt>
      <trkpt lat="49.07875" lon="6.66235">
        <ele>350.06</ele>
        <time>2021-03-09T15:18:11Z</time>
      </trkpt>
      <trkpt lat="49.07858" lon="6.66248">
        <ele>350.06</ele>
        <time>2021-03-09T15:18:25Z</time>
      </trkpt>
      <trkpt lat="49.07854" lon="6.66254">
        <ele>351.02</ele>
        <time>2021-03-09T15:18:40Z</time>
      </trkpt>
      <trkpt lat="49.07844" lon="6.66265">
        <ele>351.5</ele>
        <time>2021-03-09T15:18:56Z</time>
      </trkpt>
      <trkpt lat="49.07825" lon="6.66283">
        <ele>351.98</ele>
        <time>2021-03-09T15:19:11Z</time>
      </trkpt>
      <trkpt lat="49.07822" lon="6.66283">
        <ele>351.5</ele>
        <time>2021-03-09T15:19:13Z</time>
      </trkpt>
      <trkpt lat="49.07814" lon="6.66301">
        <ele>351.5</ele>
        <time>2021-03-09T15:19:28Z</time>
      </trkpt>
      <trkpt lat="49.0781" lon="6.66343">
        <ele>353.42</ele>
        <time>2021-03-09T15:19:46Z</time>
      </trkpt>
      <trkpt lat="49.07809" lon="6.66366">
        <ele>353.9</ele>
        <time>2021-03-09T15:20:00Z</time>
      </trkpt>
      <trkpt lat="49.07811" lon="6.66399">
        <ele>354.38</ele>
        <time>2021-03-09T15:20:15Z</time>
      </trkpt>
      <trkpt lat="49.07814" lon="6.66433">
        <ele>355.83</ele>
        <time>2021-03-09T15:20:30Z</time>
      </trkpt>
      <trkpt lat="49.07814" lon="6.66449">
        <ele>356.31</ele>
        <time>2021-03-09T15:20:37Z</time>
      </trkpt>
      <trkpt lat="49.07812" lon="6.66476">
        <ele>356.31</ele>
        <time>2021-03-09T15:20:52Z</time>
      </trkpt>
      <trkpt lat="49.07811" lon="6.66513">
        <ele>358.23</ele>
        <time>2021-03-09T15:21:09Z</time>
      </trkpt>
      <trkpt lat="49.07799" lon="6.66545">
        <ele>357.27</ele>
        <time>2021-03-09T15:21:25Z</time>
      </trkpt>
      <trkpt lat="49.07787" lon="6.66576">
        <ele>357.75</ele>
        <time>2021-03-09T15:21:39Z</time>
      </trkpt>
      <trkpt lat="49.07775" lon="6.66602">
        <ele>357.27</ele>
        <time>2021-03-09T15:21:56Z</time>
      </trkpt>
      <trkpt lat="49.07764" lon="6.66631">
        <ele>356.79</ele>
        <time>2021-03-09T15:22:11Z</time>
      </trkpt>
      <trkpt lat="49.07753" lon="6.66656">
        <ele>355.83</ele>
        <time>2021-03-09T15:22:26Z</time>
      </trkpt>
      <trkpt lat="49.07739" lon="6.6669">
        <ele>355.34</ele>
        <time>2021-03-09T15:22:41Z</time>
      </trkpt>
      <trkpt lat="49.07726" lon="6.66721">
        <ele>353.9</ele>
        <time>2021-03-09T15:22:57Z</time>
      </trkpt>
      <trkpt lat="49.07713" lon="6.66747">
        <ele>353.42</ele>
        <time>2021-03-09T15:23:12Z</time>
      </trkpt>
      <trkpt lat="49.07704" lon="6.66775">
        <ele>351.98</ele>
        <time>2021-03-09T15:23:26Z</time>
      </trkpt>
      <trkpt lat="49.07694" lon="6.66797">
        <ele>351.02</ele>
        <time>2021-03-09T15:23:41Z</time>
      </trkpt>
      <trkpt lat="49.0769" lon="6.66821">
        <ele>350.54</ele>
        <time>2021-03-09T15:23:55Z</time>
      </trkpt>
      <trkpt lat="49.07699" lon="6.66824">
        <ele>349.58</ele>
        <time>2021-03-09T15:24:08Z</time>
      </trkpt>
      <trkpt lat="49.07706" lon="6.66805">
        <ele>350.06</ele>
        <time>2021-03-09T15:24:23Z</time>
      </trkpt>
      <trkpt lat="49.07712" lon="6.66794">
        <ele>350.54</ele>
        <time>2021-03-09T15:24:34Z</time>
      </trkpt>
      <trkpt lat="49.07735" lon="6.66763">
        <ele>351.5</ele>
        <time>2021-03-09T15:24:50Z</time>
      </trkpt>
      <trkpt lat="49.07739" lon="6.66741">
        <ele>352.46</ele>
        <time>2021-03-09T15:25:01Z</time>
      </trkpt>
      <trkpt lat="49.07747" lon="6.66719">
        <ele>353.42</ele>
        <time>2021-03-09T15:25:16Z</time>
      </trkpt>
      <trkpt lat="49.07756" lon="6.66696">
        <ele>353.42</ele>
        <time>2021-03-09T15:25:28Z</time>
      </trkpt>
      <trkpt lat="49.07768" lon="6.66674">
        <ele>354.38</ele>
        <time>2021-03-09T15:25:42Z</time>
      </trkpt>
      <trkpt lat="49.0778" lon="6.66658">
        <ele>354.86</ele>
        <time>2021-03-09T15:25:55Z</time>
      </trkpt>
      <trkpt lat="49.07791" lon="6.66648">
        <ele>354.86</ele>
        <time>2021-03-09T15:26:07Z</time>
      </trkpt>
      <trkpt lat="49.07804" lon="6.66637">
        <ele>355.83</ele>
        <time>2021-03-09T15:26:21Z</time>
      </trkpt>
      <trkpt lat="49.07806" lon="6.66632">
        <ele>355.83</ele>
        <time>2021-03-09T15:26:27Z</time>
      </trkpt>
      <trkpt lat="49.07817" lon="6.6662">
        <ele>355.83</ele>
        <time>2021-03-09T15:26:42Z</time>
      </trkpt>
      <trkpt lat="49.07833" lon="6.66605">
        <ele>356.31</ele>
        <time>2021-03-09T15:26:56Z</time>
      </trkpt>
      <trkpt lat="49.07837" lon="6.66598">
        <ele>356.31</ele>
        <time>2021-03-09T15:27:02Z</time>
      </trkpt>
      <trkpt lat="49.07847" lon="6.66586">
        <ele>355.83</ele>
        <time>2021-03-09T15:27:14Z</time>
      </trkpt>
      <trkpt lat="49.07867" lon="6.66566">
        <ele>356.31</ele>
        <time>2021-03-09T15:27:30Z</time>
      </trkpt>
      <trkpt lat="49.07879" lon="6.66547">
        <ele>356.79</ele>
        <time>2021-03-09T15:27:42Z</time>
      </trkpt>
      <trkpt lat="49.07883" lon="6.66534">
        <ele>356.31</ele>
        <time>2021-03-09T15:27:47Z</time>
      </trkpt>
      <trkpt lat="49.07899" lon="6.66487">
        <ele>355.83</ele>
        <time>2021-03-09T15:28:03Z</time>
      </trkpt>
      <trkpt lat="49.07896" lon="6.66461">
        <ele>355.34</ele>
        <time>2021-03-09T15:28:16Z</time>
      </trkpt>
      <trkpt lat="49.07894" lon="6.6643">
        <ele>354.38</ele>
        <time>2021-03-09T15:28:31Z</time>
      </trkpt>
      <trkpt lat="49.07896" lon="6.66423">
        <ele>354.38</ele>
        <time>2021-03-09T15:28:50Z</time>
      </trkpt>
      <trkpt lat="49.07895" lon="6.66406">
        <ele>353.9</ele>
        <time>2021-03-09T15:29:01Z</time>
      </trkpt>
      <trkpt lat="49.07908" lon="6.66397">
        <ele>353.42</ele>
        <time>2021-03-09T15:29:16Z</time>
      </trkpt>
      <trkpt lat="49.07909" lon="6.66397">
        <ele>353.42</ele>
        <time>2021-03-09T15:29:17Z</time>
      </trkpt>
      <trkpt lat="49.07934" lon="6.66404">
        <ele>353.42</ele>
        <time>2021-03-09T15:29:33Z</time>
      </trkpt>
      <trkpt lat="49.07947" lon="6.66416">
        <ele>354.86</ele>
        <time>2021-03-09T15:29:48Z</time>
      </trkpt>
      <trkpt lat="49.07949" lon="6.6642">
        <ele>353.9</ele>
        <time>2021-03-09T15:29:52Z</time>
      </trkpt>
      <trkpt lat="49.07971" lon="6.66435">
        <ele>354.38</ele>
        <time>2021-03-09T15:30:07Z</time>
      </trkpt>
      <trkpt lat="49.07974" lon="6.66436">
        <ele>354.38</ele>
        <time>2021-03-09T15:30:15Z</time>
      </trkpt>
      <trkpt lat="49.07988" lon="6.66439">
        <ele>354.86</ele>
        <time>2021-03-09T15:30:28Z</time>
      </trkpt>
      <trkpt lat="49.07993" lon="6.66438">
        <ele>355.83</ele>
        <time>2021-03-09T15:30:31Z</time>
      </trkpt>
      <trkpt lat="49.07998" lon="6.66436">
        <ele>355.34</ele>
        <time>2021-03-09T15:30:33Z</time>
      </trkpt>
      <trkpt lat="49.08011" lon="6.66418">
        <ele>354.38</ele>
        <time>2021-03-09T15:30:45Z</time>
      </trkpt>
      <trkpt lat="49.08006" lon="6.66383">
        <ele>353.42</ele>
        <time>2021-03-09T15:31:02Z</time>
      </trkpt>
      <trkpt lat="49.08008" lon="6.66363">
        <ele>352.94</ele>
        <time>2021-03-09T15:31:12Z</time>
      </trkpt>
      <trkpt lat="49.08017" lon="6.66343">
        <ele>352.46</ele>
        <time>2021-03-09T15:31:25Z</time>
      </trkpt>
      <trkpt lat="49.08034" lon="6.66348">
        <ele>352.94</ele>
        <time>2021-03-09T15:31:41Z</time>
      </trkpt>
      <trkpt lat="49.08046" lon="6.6635">
        <ele>351.98</ele>
        <time>2021-03-09T15:31:54Z</time>
      </trkpt>
      <trkpt lat="49.08062" lon="6.6635">
        <ele>352.46</ele>
        <time>2021-03-09T15:32:07Z</time>
      </trkpt>
      <trkpt lat="49.08076" lon="6.66343">
        <ele>352.46</ele>
        <time>2021-03-09T15:32:22Z</time>
      </trkpt>
      <trkpt lat="49.0808" lon="6.66324">
        <ele>352.46</ele>
        <time>2021-03-09T15:32:39Z</time>
      </trkpt>
      <trkpt lat="49.08087" lon="6.66309">
        <ele>352.46</ele>
        <time>2021-03-09T15:32:58Z</time>
      </trkpt>
      <trkpt lat="49.08101" lon="6.6632">
        <ele>352.46</ele>
        <time>2021-03-09T15:33:12Z</time>
      </trkpt>
      <trkpt lat="49.08115" lon="6.6634">
        <ele>352.94</ele>
        <time>2021-03-09T15:33:24Z</time>
      </trkpt>
      <trkpt lat="49.08122" lon="6.66352">
        <ele>353.42</ele>
        <time>2021-03-09T15:33:30Z</time>
      </trkpt>
      <trkpt lat="49.08142" lon="6.66375">
        <ele>354.38</ele>
        <time>2021-03-09T15:33:48Z</time>
      </trkpt>
      <trkpt lat="49.08144" lon="6.66379">
        <ele>354.86</ele>
        <time>2021-03-09T15:33:51Z</time>
      </trkpt>
      <trkpt lat="49.08153" lon="6.66386">
        <ele>354.38</ele>
        <time>2021-03-09T15:34:03Z</time>
      </trkpt>
      <trkpt lat="49.08159" lon="6.66403">
        <ele>355.83</ele>
        <time>2021-03-09T15:34:16Z</time>
      </trkpt>
      <trkpt lat="49.08168" lon="6.66419">
        <ele>355.34</ele>
        <time>2021-03-09T15:34:30Z</time>
      </trkpt>
      <trkpt lat="49.08189" lon="6.66451">
        <ele>356.79</ele>
        <time>2021-03-09T15:34:48Z</time>
      </trkpt>
      <trkpt lat="49.08199" lon="6.66471">
        <ele>357.75</ele>
        <time>2021-03-09T15:35:02Z</time>
      </trkpt>
      <trkpt lat="49.08201" lon="6.66479">
        <ele>357.27</ele>
        <time>2021-03-09T15:35:08Z</time>
      </trkpt>
      <trkpt lat="49.08214" lon="6.66507">
        <ele>358.23</ele>
        <time>2021-03-09T15:35:22Z</time>
      </trkpt>
      <trkpt lat="49.08215" lon="6.66508">
        <ele>357.75</ele>
        <time>2021-03-09T15:35:23Z</time>
      </trkpt>
      <trkpt lat="49.08221" lon="6.66521">
        <ele>358.23</ele>
        <time>2021-03-09T15:35:31Z</time>
      </trkpt>
      <trkpt lat="49.0823" lon="6.66548">
        <ele>358.23</ele>
        <time>2021-03-09T15:35:46Z</time>
      </trkpt>
      <trkpt lat="49.08239" lon="6.66571">
        <ele>357.27</ele>
        <time>2021-03-09T15:36:03Z</time>
      </trkpt>
      <trkpt lat="49.08245" lon="6.66598">
        <ele>355.83</ele>
        <time>2021-03-09T15:36:19Z</time>
      </trkpt>
      <trkpt lat="49.08255" lon="6.6662">
        <ele>353.9</ele>
        <time>2021-03-09T15:36:37Z</time>
      </trkpt>
      <trkpt lat="49.08257" lon="6.66631">
        <ele>353.42</ele>
        <time>2021-03-09T15:36:50Z</time>
      </trkpt>
      <trkpt lat="49.08266" lon="6.66648">
        <ele>352.94</ele>
        <time>2021-03-09T15:37:07Z</time>
      </trkpt>
      <trkpt lat="49.08269" lon="6.66655">
        <ele>352.94</ele>
        <time>2021-03-09T15:37:24Z</time>
      </trkpt>
      <trkpt lat="49.08271" lon="6.6666">
        <ele>352.94</ele>
        <time>2021-03-09T15:37:29Z</time>
      </trkpt>
      <trkpt lat="49.08276" lon="6.66678">
        <ele>350.54</ele>
        <time>2021-03-09T15:37:42Z</time>
      </trkpt>
      <trkpt lat="49.08288" lon="6.66693">
        <ele>351.02</ele>
        <time>2021-03-09T15:37:59Z</time>
      </trkpt>
      <trkpt lat="49.08293" lon="6.66702">
        <ele>350.54</ele>
        <time>2021-03-09T15:38:14Z</time>
      </trkpt>
      <trkpt lat="49.08293" lon="6.66699">
        <ele>350.54</ele>
        <time>2021-03-09T15:38:39Z</time>
      </trkpt>
      <trkpt lat="49.08294" lon="6.66703">
        <ele>351.5</ele>
        <time>2021-03-09T15:39:11Z</time>
      </trkpt>
      <trkpt lat="49.08299" lon="6.66723">
        <ele>351.02</ele>
        <time>2021-03-09T15:39:31Z</time>
      </trkpt>
      <trkpt lat="49.08312" lon="6.66755">
        <ele>351.02</ele>
        <time>2021-03-09T15:39:50Z</time>
      </trkpt>
      <trkpt lat="49.08318" lon="6.66772">
        <ele>351.02</ele>
        <time>2021-03-09T15:40:00Z</time>
      </trkpt>
      <trkpt lat="49.08324" lon="6.66803">
        <ele>351.02</ele>
        <time>2021-03-09T15:40:17Z</time>
      </trkpt>
      <trkpt lat="49.08331" lon="6.66845">
        <ele>351.02</ele>
        <time>2021-03-09T15:40:35Z</time>
      </trkpt>
      <trkpt lat="49.08331" lon="6.66864">
        <ele>351.5</ele>
        <time>2021-03-09T15:40:44Z</time>
      </trkpt>
      <trkpt lat="49.08332" lon="6.66876">
        <ele>351.98</ele>
        <time>2021-03-09T15:40:52Z</time>
      </trkpt>
      <trkpt lat="49.08334" lon="6.66904">
        <ele>351.98</ele>
        <time>2021-03-09T15:41:08Z</time>
      </trkpt>
      <trkpt lat="49.08335" lon="6.66937">
        <ele>351.02</ele>
        <time>2021-03-09T15:41:24Z</time>
      </trkpt>
      <trkpt lat="49.08335" lon="6.66971">
        <ele>351.5</ele>
        <time>2021-03-09T15:41:41Z</time>
      </trkpt>
      <trkpt lat="49.08336" lon="6.66983">
        <ele>351.5</ele>
        <time>2021-03-09T15:41:47Z</time>
      </trkpt>
      <trkpt lat="49.08347" lon="6.67026">
        <ele>351.02</ele>
        <time>2021-03-09T15:42:08Z</time>
      </trkpt>
      <trkpt lat="49.08359" lon="6.67069">
        <ele>351.5</ele>
        <time>2021-03-09T15:42:29Z</time>
      </trkpt>
      <trkpt lat="49.08366" lon="6.67094">
        <ele>351.5</ele>
        <time>2021-03-09T15:42:44Z</time>
      </trkpt>
      <trkpt lat="49.08375" lon="6.67128">
        <ele>351.5</ele>
        <time>2021-03-09T15:43:02Z</time>
      </trkpt>
      <trkpt lat="49.08383" lon="6.67155">
        <ele>351.5</ele>
        <time>2021-03-09T15:43:17Z</time>
      </trkpt>
      <trkpt lat="49.08391" lon="6.67185">
        <ele>352.46</ele>
        <time>2021-03-09T15:43:35Z</time>
      </trkpt>
      <trkpt lat="49.084" lon="6.67215">
        <ele>351.98</ele>
        <time>2021-03-09T15:43:51Z</time>
      </trkpt>
      <trkpt lat="49.08405" lon="6.6724">
        <ele>352.94</ele>
        <time>2021-03-09T15:44:07Z</time>
      </trkpt>
      <trkpt lat="49.08412" lon="6.67268">
        <ele>352.94</ele>
        <time>2021-03-09T15:44:24Z</time>
      </trkpt>
      <trkpt lat="49.08417" lon="6.67302">
        <ele>352.94</ele>
        <time>2021-03-09T15:44:40Z</time>
      </trkpt>
      <trkpt lat="49.08426" lon="6.67323">
        <ele>353.42</ele>
        <time>2021-03-09T15:44:56Z</time>
      </trkpt>
      <trkpt lat="49.08434" lon="6.67348">
        <ele>352.94</ele>
        <time>2021-03-09T15:45:11Z</time>
      </trkpt>
      <trkpt lat="49.08443" lon="6.67377">
        <ele>353.42</ele>
        <time>2021-03-09T15:45:27Z</time>
      </trkpt>
      <trkpt lat="49.08455" lon="6.67413">
        <ele>353.42</ele>
        <time>2021-03-09T15:45:46Z</time>
      </trkpt>
      <trkpt lat="49.08465" lon="6.67449">
        <ele>352.94</ele>
        <time>2021-03-09T15:46:05Z</time>
      </trkpt>
      <trkpt lat="49.08476" lon="6.67485">
        <ele>352.94</ele>
        <time>2021-03-09T15:46:24Z</time>
      </trkpt>
      <trkpt lat="49.08485" lon="6.67521">
        <ele>352.94</ele>
        <time>2021-03-09T15:46:42Z</time>
      </trkpt>
      <trkpt lat="49.08497" lon="6.67562">
        <ele>352.94</ele>
        <time>2021-03-09T15:47:03Z</time>
      </trkpt>
      <trkpt lat="49.085" lon="6.67573">
        <ele>351.5</ele>
        <time>2021-03-09T15:47:09Z</time>
      </trkpt>
      <trkpt lat="49.08514" lon="6.67603">
        <ele>352.94</ele>
        <time>2021-03-09T15:47:26Z</time>
      </trkpt>
      <trkpt lat="49.08527" lon="6.67642">
        <ele>352.94</ele>
        <time>2021-03-09T15:47:46Z</time>
      </trkpt>
      <trkpt lat="49.08536" lon="6.67679">
        <ele>352.94</ele>
        <time>2021-03-09T15:48:05Z</time>
      </trkpt>
      <trkpt lat="49.08548" lon="6.67723">
        <ele>352.94</ele>
        <time>2021-03-09T15:48:27Z</time>
      </trkpt>
      <trkpt lat="49.08555" lon="6.67746">
        <ele>352.94</ele>
        <time>2021-03-09T15:48:39Z</time>
      </trkpt>
      <trkpt lat="49.08567" lon="6.67771">
        <ele>352.94</ele>
        <time>2021-03-09T15:48:55Z</time>
      </trkpt>
      <trkpt lat="49.08567" lon="6.67775">
        <ele>353.42</ele>
        <time>2021-03-09T15:48:57Z</time>
      </trkpt>
      <trkpt lat="49.08575" lon="6.67819">
        <ele>353.42</ele>
        <time>2021-03-09T15:49:18Z</time>
      </trkpt>
      <trkpt lat="49.08582" lon="6.67857">
        <ele>353.9</ele>
        <time>2021-03-09T15:49:36Z</time>
      </trkpt>
      <trkpt lat="49.08589" lon="6.67898">
        <ele>353.9</ele>
        <time>2021-03-09T15:49:56Z</time>
      </trkpt>
      <trkpt lat="49.08594" lon="6.67949">
        <ele>354.38</ele>
        <time>2021-03-09T15:50:19Z</time>
      </trkpt>
      <trkpt lat="49.08595" lon="6.68005">
        <ele>354.38</ele>
        <time>2021-03-09T15:50:43Z</time>
      </trkpt>
      <trkpt lat="49.08598" lon="6.68045">
        <ele>355.34</ele>
        <time>2021-03-09T15:51:04Z</time>
      </trkpt>
      <trkpt lat="49.08601" lon="6.68089">
        <ele>355.34</ele>
        <time>2021-03-09T15:51:25Z</time>
      </trkpt>
      <trkpt lat="49.08609" lon="6.68132">
        <ele>354.86</ele>
        <time>2021-03-09T15:51:47Z</time>
      </trkpt>
      <trkpt lat="49.08617" lon="6.6816">
        <ele>355.34</ele>
        <time>2021-03-09T15:52:00Z</time>
      </trkpt>
      <trkpt lat="49.0863" lon="6.68201">
        <ele>353.9</ele>
        <time>2021-03-09T15:52:21Z</time>
      </trkpt>
      <trkpt lat="49.08646" lon="6.68232">
        <ele>353.42</ele>
        <time>2021-03-09T15:52:39Z</time>
      </trkpt>
      <trkpt lat="49.08663" lon="6.68261">
        <ele>352.94</ele>
        <time>2021-03-09T15:52:57Z</time>
      </trkpt>
      <trkpt lat="49.08684" lon="6.68289">
        <ele>352.46</ele>
        <time>2021-03-09T15:53:17Z</time>
      </trkpt>
      <trkpt lat="49.08711" lon="6.68315">
        <ele>351.02</ele>
        <time>2021-03-09T15:53:39Z</time>
      </trkpt>
      <trkpt lat="49.0874" lon="6.68334">
        <ele>349.1</ele>
        <time>2021-03-09T15:54:00Z</time>
      </trkpt>
      <trkpt lat="49.08767" lon="6.68346">
        <ele>347.65</ele>
        <time>2021-03-09T15:54:19Z</time>
      </trkpt>
      <trkpt lat="49.08796" lon="6.68359">
        <ele>346.69</ele>
        <time>2021-03-09T15:54:39Z</time>
      </trkpt>
      <trkpt lat="49.08827" lon="6.68372">
        <ele>344.29</ele>
        <time>2021-03-09T15:55:00Z</time>
      </trkpt>
      <trkpt lat="49.08855" lon="6.68384">
        <ele>341.89</ele>
        <time>2021-03-09T15:55:20Z</time>
      </trkpt>
      <trkpt lat="49.08881" lon="6.68403">
        <ele>339.96</ele>
        <time>2021-03-09T15:55:40Z</time>
      </trkpt>
      <trkpt lat="49.08906" lon="6.68426">
        <ele>338.52</ele>
        <time>2021-03-09T15:55:58Z</time>
      </trkpt>
      <trkpt lat="49.08935" lon="6.68459">
        <ele>336.12</ele>
        <time>2021-03-09T15:56:21Z</time>
      </trkpt>
      <trkpt lat="49.08959" lon="6.68493">
        <ele>333.23</ele>
        <time>2021-03-09T15:56:42Z</time>
      </trkpt>
      <trkpt lat="49.08976" lon="6.68528">
        <ele>331.31</ele>
        <time>2021-03-09T15:57:00Z</time>
      </trkpt>
      <trkpt lat="49.08986" lon="6.68555">
        <ele>329.39</ele>
        <time>2021-03-09T15:57:17Z</time>
      </trkpt>
      <trkpt lat="49.08996" lon="6.68589">
        <ele>326.99</ele>
        <time>2021-03-09T15:57:33Z</time>
      </trkpt>
      <trkpt lat="49.09005" lon="6.68629">
        <ele>325.54</ele>
        <time>2021-03-09T15:57:52Z</time>
      </trkpt>
      <trkpt lat="49.0901" lon="6.68675">
        <ele>323.62</ele>
        <time>2021-03-09T15:58:12Z</time>
      </trkpt>
      <trkpt lat="49.09011" lon="6.68721">
        <ele>322.66</ele>
        <time>2021-03-09T15:58:33Z</time>
      </trkpt>
      <trkpt lat="49.09008" lon="6.68772">
        <ele>322.18</ele>
        <time>2021-03-09T15:58:56Z</time>
      </trkpt>
      <trkpt lat="49.09005" lon="6.68815">
        <ele>320.74</ele>
        <time>2021-03-09T15:59:18Z</time>
      </trkpt>
      <trkpt lat="49.09004" lon="6.68859">
        <ele>321.22</ele>
        <time>2021-03-09T15:59:39Z</time>
      </trkpt>
      <trkpt lat="49.09029" lon="6.68863">
        <ele>321.22</ele>
        <time>2021-03-09T15:59:57Z</time>
      </trkpt>
      <trkpt lat="49.0906" lon="6.6887">
        <ele>321.7</ele>
        <time>2021-03-09T16:00:19Z</time>
      </trkpt>
      <trkpt lat="49.09092" lon="6.68881">
        <ele>323.14</ele>
        <time>2021-03-09T16:00:43Z</time>
      </trkpt>
      <trkpt lat="49.09086" lon="6.68906">
        <ele>322.18</ele>
        <time>2021-03-09T16:00:57Z</time>
      </trkpt>
      <trkpt lat="49.0907" lon="6.6893">
        <ele>318.81</ele>
        <time>2021-03-09T16:01:13Z</time>
      </trkpt>
      <trkpt lat="49.09053" lon="6.68956">
        <ele>317.85</ele>
        <time>2021-03-09T16:01:30Z</time>
      </trkpt>
      <trkpt lat="49.09036" lon="6.68982">
        <ele>315.45</ele>
        <time>2021-03-09T16:01:49Z</time>
      </trkpt>
      <trkpt lat="49.09017" lon="6.69015">
        <ele>313.53</ele>
        <time>2021-03-09T16:02:08Z</time>
      </trkpt>
      <trkpt lat="49.08997" lon="6.69046">
        <ele>311.12</ele>
        <time>2021-03-09T16:02:27Z</time>
      </trkpt>
      <trkpt lat="49.08981" lon="6.69072">
        <ele>309.68</ele>
        <time>2021-03-09T16:02:44Z</time>
      </trkpt>
      <trkpt lat="49.08975" lon="6.69074">
        <ele>309.2</ele>
        <time>2021-03-09T16:02:48Z</time>
      </trkpt>
      <trkpt lat="49.08954" lon="6.69102">
        <ele>307.28</ele>
        <time>2021-03-09T16:03:08Z</time>
      </trkpt>
      <trkpt lat="49.08936" lon="6.69126">
        <ele>304.88</ele>
        <time>2021-03-09T16:03:25Z</time>
      </trkpt>
      <trkpt lat="49.08933" lon="6.69131">
        <ele>304.88</ele>
        <time>2021-03-09T16:03:32Z</time>
      </trkpt>
      <trkpt lat="49.08929" lon="6.69137">
        <ele>303.91</ele>
        <time>2021-03-09T16:03:37Z</time>
      </trkpt>
      <trkpt lat="49.08926" lon="6.69154">
        <ele>304.88</ele>
        <time>2021-03-09T16:03:50Z</time>
      </trkpt>
      <trkpt lat="49.08922" lon="6.6916">
        <ele>304.39</ele>
        <time>2021-03-09T16:04:09Z</time>
      </trkpt>
      <trkpt lat="49.08924" lon="6.6916">
        <ele>303.91</ele>
        <time>2021-03-09T16:04:31Z</time>
      </trkpt>
      <trkpt lat="49.08925" lon="6.69155">
        <ele>303.91</ele>
        <time>2021-03-09T16:05:01Z</time>
      </trkpt>
      <trkpt lat="49.08921" lon="6.69142">
        <ele>303.43</ele>
        <time>2021-03-09T16:05:11Z</time>
      </trkpt>
      <trkpt lat="49.08901" lon="6.69165">
        <ele>301.51</ele>
        <time>2021-03-09T16:05:31Z</time>
      </trkpt>
      <trkpt lat="49.08882" lon="6.69182">
        <ele>299.59</ele>
        <time>2021-03-09T16:05:45Z</time>
      </trkpt>
      <trkpt lat="49.08857" lon="6.69208">
        <ele>296.7</ele>
        <time>2021-03-09T16:06:04Z</time>
      </trkpt>
      <trkpt lat="49.08856" lon="6.6921">
        <ele>297.18</ele>
        <time>2021-03-09T16:06:05Z</time>
      </trkpt>
      <trkpt lat="49.08831" lon="6.69233">
        <ele>294.3</ele>
        <time>2021-03-09T16:06:24Z</time>
      </trkpt>
      <trkpt lat="49.0881" lon="6.69255">
        <ele>292.86</ele>
        <time>2021-03-09T16:06:42Z</time>
      </trkpt>
      <trkpt lat="49.08786" lon="6.6927">
        <ele>291.42</ele>
        <time>2021-03-09T16:06:59Z</time>
      </trkpt>
      <trkpt lat="49.08757" lon="6.69301">
        <ele>289.97</ele>
        <time>2021-03-09T16:07:22Z</time>
      </trkpt>
      <trkpt lat="49.08744" lon="6.69318">
        <ele>289.97</ele>
        <time>2021-03-09T16:07:39Z</time>
      </trkpt>
      <trkpt lat="49.08726" lon="6.69342">
        <ele>289.01</ele>
        <time>2021-03-09T16:07:57Z</time>
      </trkpt>
      <trkpt lat="49.08719" lon="6.69355">
        <ele>289.49</ele>
        <time>2021-03-09T16:08:11Z</time>
      </trkpt>
      <trkpt lat="49.08713" lon="6.69358">
        <ele>289.97</ele>
        <time>2021-03-09T16:08:23Z</time>
      </trkpt>
      <trkpt lat="49.08711" lon="6.69358">
        <ele>289.97</ele>
        <time>2021-03-09T16:08:45Z</time>
      </trkpt>
      <trkpt lat="49.08718" lon="6.69353">
        <ele>290.46</ele>
        <time>2021-03-09T16:09:06Z</time>
      </trkpt>
    </trkseg>
  </trk>
</gpx>